Time;durP1;ratioP1;P1;durP2;ratioP2;P2;SDS_P1;SDS_P2;PMS_P1;PMS_P2;Temp;Humidity;BMP_temperature;BMP_pressure;BME280_temperature;BME280_humidity;BME280_pressure;Samples;Min_cycle;Max_cycle;Signal;HPM_P1;HPM_P2
2023/11/11 00:00:37;;;;;;;10.10;2.80;;;3.40;99.90;;;;;;7479473;19;20044;-72
2023/11/11 00:03:10;;;;;;;6.82;2.50;;;3.50;99.90;;;;;;7491731;19;20384;-72
2023/11/11 00:05:43;;;;;;;5.35;3.33;;;3.50;99.90;;;;;;7491211;19;20353;-71
2023/11/11 00:08:17;;;;;;;4.05;2.90;;;3.60;99.90;;;;;;7508588;19;20022;-70
2023/11/11 00:10:49;;;;;;;7.07;2.63;;;3.50;99.90;;;;;;7500669;19;20830;-71
2023/11/11 00:13:22;;;;;;;4.82;2.35;;;3.50;99.90;;;;;;7513401;19;20019;-73
2023/11/11 00:15:55;;;;;;;3.90;2.63;;;3.50;99.90;;;;;;7499854;19;20018;-71
2023/11/11 00:18:28;;;;;;;3.30;2.28;;;3.50;99.90;;;;;;7494118;19;20010;-71
2023/11/11 00:21:00;;;;;;;6.38;2.83;;;3.50;99.90;;;;;;7516954;19;20431;-71
2023/11/11 00:23:35;;;;;;;2.95;2.33;;;3.50;99.90;;;;;;7519985;19;20030;-72
2023/11/11 00:26:08;;;;;;;4.50;2.60;;;3.50;99.90;;;;;;7504867;19;20067;-72
2023/11/11 00:28:41;;;;;;;4.03;2.25;;;3.40;99.90;;;;;;7502052;19;20025;-72
2023/11/11 00:31:13;;;;;;;5.20;2.50;;;3.40;99.90;;;;;;7503521;19;20014;-72
2023/11/11 00:33:46;;;;;;;3.53;2.08;;;3.40;99.90;;;;;;7500302;19;20018;-71
2023/11/11 00:36:19;;;;;;;3.67;2.35;;;3.40;99.90;;;;;;7515378;19;20025;-72
2023/11/11 00:38:51;;;;;;;5.27;2.63;;;3.40;99.90;;;;;;7497574;19;20805;-72
2023/11/11 00:41:23;;;;;;;5.32;2.88;;;3.40;99.90;;;;;;7509938;19;20291;-72
2023/11/11 00:43:57;;;;;;;3.97;2.05;;;3.40;99.90;;;;;;7512162;19;20002;-72
2023/11/11 00:46:29;;;;;;;;;;;3.40;99.90;;;;;;7519928;19;20026;-72
2023/11/11 00:49:02;;;;;;;3.60;2.25;;;3.40;99.90;;;;;;7491882;19;19918;-71
2023/11/11 00:51:41;;;;;;;3.75;2.40;;;3.40;99.90;;;;;;7508532;19;20574;-72
2023/11/11 00:54:14;;;;;;;4.53;2.20;;;3.40;99.90;;;;;;7496625;19;20014;-72
2023/11/11 00:56:47;;;;;;;3.60;2.42;;;3.30;99.90;;;;;;7513617;19;20502;-72
2023/11/11 00:59:19;;;;;;;3.60;2.00;;;3.30;99.90;;;;;;7506554;19;20030;-71
2023/11/11 01:01:52;;;;;;;6.03;2.17;;;3.30;99.90;;;;;;7483907;19;20986;-72
2023/11/11 01:04:26;;;;;;;3.00;2.25;;;3.30;99.90;;;;;;7478653;19;21408;-72
2023/11/11 01:06:59;;;;;;;;;;;3.40;99.90;;;;;;7466964;19;20444;-72
2023/11/11 01:09:31;;;;;;;3.40;1.73;;;3.50;99.90;;;;;;7485842;19;19910;-72
2023/11/11 01:12:04;;;;;;;3.05;1.73;;;3.50;99.90;;;;;;7474084;19;20143;-71
2023/11/11 01:14:36;;;;;;;2.93;1.60;;;3.60;99.90;;;;;;7474860;19;20011;-71
2023/11/11 01:17:10;;;;;;;4.55;1.60;;;3.60;99.90;;;;;;7481519;19;22153;-70
2023/11/11 01:19:42;;;;;;;4.60;1.58;;;3.60;99.90;;;;;;7496899;19;20136;-71
2023/11/11 01:22:16;;;;;;;3.25;1.90;;;3.60;99.90;;;;;;7458045;19;20018;-71
2023/11/11 01:24:49;;;;;;;2.30;1.52;;;3.60;99.90;;;;;;7476680;19;20022;-70
2023/11/11 01:27:21;;;;;;;3.13;1.85;;;3.70;99.90;;;;;;7488674;19;20006;-71
2023/11/11 01:29:54;;;;;;;4.18;2.10;;;3.70;99.90;;;;;;7477734;19;20027;-71
2023/11/11 01:32:27;;;;;;;6.43;2.72;;;3.70;99.90;;;;;;7492980;19;20022;-71
2023/11/11 01:35:00;;;;;;;5.43;2.50;;;3.70;99.90;;;;;;7474690;19;20014;-71
2023/11/11 01:37:32;;;;;;;4.40;2.13;;;3.70;99.90;;;;;;7487499;19;20207;-71
2023/11/11 01:40:06;;;;;;;3.05;1.58;;;3.70;99.90;;;;;;7472595;19;20010;-71
2023/11/11 01:42:40;;;;;;;2.45;1.10;;;3.90;99.90;;;;;;7467500;19;20018;-71
2023/11/11 01:45:12;;;;;;;3.08;1.10;;;4.40;99.90;;;;;;7469843;19;20605;-71
2023/11/11 01:47:45;;;;;;;4.13;1.92;;;4.50;99.90;;;;;;7476624;19;20052;-70
2023/11/11 01:50:17;;;;;;;3.33;1.60;;;4.40;99.90;;;;;;7492810;19;20011;-70
2023/11/11 01:52:50;;;;;;;3.92;1.88;;;4.20;99.90;;;;;;7489032;19;20018;-71
2023/11/11 01:55:23;;;;;;;3.42;1.60;;;4.20;99.90;;;;;;7469901;19;20060;-71
2023/11/11 01:57:57;;;;;;;4.50;1.00;;;4.20;99.90;;;;;;7490102;19;20022;-70
2023/11/11 02:00:35;;;;;;;2.00;1.20;;;4.20;99.90;;;;;;7497583;19;20022;-71
2023/11/11 02:03:08;;;;;;;2.83;1.48;;;4.20;99.90;;;;;;7501567;19;20023;-71
2023/11/11 02:05:42;;;;;;;1.75;1.10;;;4.20;99.90;;;;;;7491272;19;20018;-72
2023/11/11 02:08:15;;;;;;;0.90;0.80;;;4.20;99.90;;;;;;7477822;19;20349;-71
2023/11/11 02:10:48;;;;;;;1.60;1.00;;;4.30;99.90;;;;;;7479473;19;20064;-72
2023/11/11 02:13:22;;;;;;;1.20;1.10;;;4.30;99.90;;;;;;7504942;19;20014;-72
2023/11/11 02:15:55;;;;;;;2.17;1.23;;;4.40;99.90;;;;;;7472018;19;20014;-72
2023/11/11 02:18:28;;;;;;;2.35;1.30;;;4.40;99.90;;;;;;7497554;19;20022;-72
2023/11/11 02:21:01;;;;;;;1.75;0.93;;;4.40;99.90;;;;;;7493130;19;20637;-71
2023/11/11 02:23:35;;;;;;;1.52;0.88;;;4.40;99.90;;;;;;7490674;19;20713;-71
2023/11/11 02:26:07;;;;;;;2.20;0.85;;;4.40;99.90;;;;;;7479749;19;20015;-72
2023/11/11 02:28:40;;;;;;;2.55;1.17;;;4.40;99.90;;;;;;7487426;19;20018;-72
2023/11/11 02:31:13;;;;;;;6.80;0.98;;;4.40;99.90;;;;;;7480987;19;20022;-72
2023/11/11 02:33:45;;;;;;;2.03;0.90;;;4.30;99.90;;;;;;7499488;19;20026;-73
2023/11/11 02:36:19;;;;;;;3.00;1.38;;;4.30;99.90;;;;;;7487192;19;20018;-73
2023/11/11 02:38:52;;;;;;;2.67;1.02;;;4.20;99.90;;;;;;7484508;19;20014;-72
2023/11/11 02:41:24;;;;;;;0.88;0.82;;;4.20;99.90;;;;;;7501983;19;20026;-72
2023/11/11 02:43:56;;;;;;;4.90;1.05;;;4.20;99.90;;;;;;7483103;19;20011;-72
2023/11/11 02:46:29;;;;;;;2.90;0.88;;;4.20;99.90;;;;;;7476546;19;20018;-72
2023/11/11 02:49:04;;;;;;;2.43;0.77;;;4.30;99.90;;;;;;7496981;19;20026;-72
2023/11/11 02:51:36;;;;;;;1.15;0.63;;;4.20;99.90;;;;;;7497036;19;20134;-72
2023/11/11 02:54:08;;;;;;;4.00;0.88;;;4.30;99.90;;;;;;7468147;19;20014;-73
2023/11/11 02:56:41;;;;;;;3.17;0.80;;;4.30;99.90;;;;;;7485571;19;20010;-72
2023/11/11 02:59:13;;;;;;;1.38;0.75;;;4.40;99.90;;;;;;7463895;19;20021;-72
2023/11/11 03:01:46;;;;;;;3.08;0.95;;;4.40;99.90;;;;;;7469736;19;20003;-72
2023/11/11 03:04:19;;;;;;;0.95;0.68;;;4.40;99.90;;;;;;7464970;19;20018;-71
2023/11/11 03:06:51;;;;;;;1.00;0.70;;;4.40;99.90;;;;;;7481303;19;20021;-71
2023/11/11 03:09:23;;;;;;;1.45;0.85;;;4.60;99.90;;;;;;7482420;19;20018;-71
2023/11/11 03:11:56;;;;;;;1.63;0.85;;;4.60;99.90;;;;;;7499613;19;20023;-71
2023/11/11 03:14:29;;;;;;;1.60;0.90;;;4.60;99.90;;;;;;7475258;19;20021;-71
2023/11/11 03:17:01;;;;;;;3.70;1.30;;;4.60;99.90;;;;;;7488925;19;20019;-71
2023/11/11 03:19:34;;;;;;;0.70;0.63;;;4.70;99.90;;;;;;7498955;19;20046;-71
2023/11/11 03:22:06;;;;;;;1.50;0.68;;;4.70;99.90;;;;;;7491637;19;20558;-71
2023/11/11 03:24:39;;;;;;;2.47;0.60;;;4.80;99.90;;;;;;7488284;19;20026;-72
2023/11/11 03:27:12;;;;;;;1.45;0.60;;;4.70;99.90;;;;;;7495082;19;20014;-72
2023/11/11 03:29:44;;;;;;;0.88;0.43;;;4.90;99.90;;;;;;7483346;19;20025;-73
2023/11/11 03:32:16;;;;;;;0.82;0.68;;;5.00;99.90;;;;;;7482656;19;20464;-73
2023/11/11 03:34:49;;;;;;;1.17;0.68;;;4.90;99.90;;;;;;7474698;19;20025;-70
2023/11/11 03:37:22;;;;;;;1.38;0.90;;;5.00;99.90;;;;;;7490023;19;20041;-72
2023/11/11 03:39:55;;;;;;;1.05;0.57;;;5.00;99.90;;;;;;7493302;19;20019;-72
2023/11/11 03:42:27;;;;;;;1.88;0.52;;;5.00;99.90;;;;;;7470973;19;20022;-71
2023/11/11 03:44:59;;;;;;;0.90;0.60;;;5.10;99.90;;;;;;7490206;19;20680;-72
2023/11/11 03:47:33;;;;;;;0.95;0.50;;;5.00;99.90;;;;;;7469214;19;20101;-72
2023/11/11 03:50:07;;;;;;;2.08;0.80;;;5.00;99.90;;;;;;7458742;19;21457;-72
2023/11/11 03:52:40;;;;;;;2.42;0.77;;;5.00;99.90;;;;;;7493815;19;20110;-71
2023/11/11 03:55:12;;;;;;;3.70;0.40;;;5.10;99.90;;;;;;7480327;19;20118;-71
2023/11/11 03:57:45;;;;;;;0.70;0.40;;;5.00;99.90;;;;;;7499612;19;20043;-72
2023/11/11 04:00:19;;;;;;;0.20;0.20;;;5.00;99.90;;;;;;7493414;19;21071;-72
2023/11/11 04:02:53;;;;;;;0.47;0.47;;;5.20;99.90;;;;;;7492607;19;20673;-72
2023/11/11 04:05:27;;;;;;;0.57;0.57;;;5.20;99.90;;;;;;7488051;19;20019;-72
2023/11/11 04:07:59;;;;;;;1.05;0.52;;;5.10;99.90;;;;;;7474232;19;20018;-72
2023/11/11 04:10:32;;;;;;;0.40;0.40;;;5.00;99.90;;;;;;7468384;19;21467;-72
2023/11/11 04:13:05;;;;;;;2.35;0.60;;;5.20;99.90;;;;;;7486626;19;20014;-71
2023/11/11 04:15:37;;;;;;;0.65;0.65;;;5.20;99.90;;;;;;7480566;19;20073;-71
2023/11/11 04:18:10;;;;;;;0.50;0.50;;;5.10;99.90;;;;;;7454724;19;20029;-71
2023/11/11 04:20:43;;;;;;;;;;;5.10;99.90;;;;;;7489238;19;21166;-72
2023/11/11 04:23:18;;;;;;;0.73;0.55;;;5.10;99.90;;;;;;7491430;19;21333;-71
2023/11/11 04:25:50;;;;;;;0.70;0.57;;;5.10;99.90;;;;;;7485381;19;20018;-71
2023/11/11 04:28:24;;;;;;;0.40;0.40;;;5.10;99.90;;;;;;7472752;19;20049;-72
2023/11/11 04:30:57;;;;;;;0.60;0.60;;;5.20;99.90;;;;;;7472960;19;20143;-72
2023/11/11 04:33:30;;;;;;;1.88;0.57;;;5.20;99.90;;;;;;7482988;19;20022;-72
2023/11/11 04:36:03;;;;;;;1.03;0.80;;;5.20;99.90;;;;;;7504083;19;20022;-72
2023/11/11 04:38:37;;;;;;;0.57;0.43;;;5.20;99.90;;;;;;7472114;19;20030;-72
2023/11/11 04:41:11;;;;;;;0.40;0.40;;;5.20;99.90;;;;;;7475519;19;20364;-71
2023/11/11 04:43:44;;;;;;;0.80;0.68;;;5.10;99.90;;;;;;7468160;19;20033;-71
2023/11/11 04:46:17;;;;;;;1.23;0.60;;;5.10;99.90;;;;;;7460444;19;20002;-71
2023/11/11 04:48:49;;;;;;;0.47;0.47;;;5.10;99.90;;;;;;7496960;19;20113;-71
2023/11/11 04:51:22;;;;;;;0.52;0.50;;;5.10;99.90;;;;;;7484092;19;21430;-72
2023/11/11 04:53:55;;;;;;;0.60;0.60;;;5.10;99.90;;;;;;7477125;19;20021;-71
2023/11/11 04:56:27;;;;;;;0.47;0.47;;;5.10;99.90;;;;;;7470516;19;20018;-73
2023/11/11 04:59:00;;;;;;;0.98;0.60;;;5.20;99.90;;;;;;7495530;19;20587;-72
2023/11/11 05:01:32;;;;;;;0.55;0.55;;;5.20;99.90;;;;;;7484402;19;20085;-73
2023/11/11 05:04:05;;;;;;;0.65;0.50;;;5.30;99.90;;;;;;7486908;19;20033;-72
2023/11/11 05:06:38;;;;;;;0.63;0.60;;;5.40;99.90;;;;;;7489903;19;20014;-71
2023/11/11 05:09:10;;;;;;;0.57;0.50;;;5.30;99.90;;;;;;7484177;19;20902;-71
2023/11/11 05:11:45;;;;;;;0.65;0.65;;;5.20;99.90;;;;;;7478846;19;20017;-70
2023/11/11 05:14:18;;;;;;;2.17;0.60;;;5.20;99.90;;;;;;7483151;19;20018;-71
2023/11/11 05:16:50;;;;;;;0.88;0.60;;;5.20;99.90;;;;;;7484548;19;21026;-71
2023/11/11 05:19:24;;;;;;;1.08;0.70;;;5.20;99.90;;;;;;7473825;19;21438;-72
2023/11/11 05:21:57;;;;;;;0.70;0.70;;;5.40;99.90;;;;;;7490538;19;20110;-72
2023/11/11 05:24:30;;;;;;;0.95;0.60;;;5.40;99.90;;;;;;7473598;19;21778;-72
2023/11/11 05:27:02;;;;;;;1.20;0.70;;;5.30;99.90;;;;;;7481197;19;20018;-72
2023/11/11 05:29:36;;;;;;;1.08;0.60;;;5.40;99.90;;;;;;7480276;19;20026;-72
2023/11/11 05:32:09;;;;;;;0.77;0.70;;;5.40;99.90;;;;;;7478450;19;20068;-71
2023/11/11 05:34:44;;;;;;;0.82;0.57;;;5.40;99.90;;;;;;7465963;19;20072;-72
2023/11/11 05:37:17;;;;;;;1.48;1.02;;;5.40;99.90;;;;;;7480627;19;20026;-72
2023/11/11 05:39:49;;;;;;;1.17;0.85;;;5.50;99.90;;;;;;7487300;19;20019;-71
2023/11/11 05:42:22;;;;;;;0.70;0.70;;;5.50;99.90;;;;;;7474720;19;20018;-71
2023/11/11 05:44:55;;;;;;;0.85;0.85;;;5.50;99.90;;;;;;7494576;19;20022;-72
2023/11/11 05:47:28;;;;;;;3.70;1.00;;;5.60;99.90;;;;;;7450809;19;20670;-72
2023/11/11 05:50:01;;;;;;;2.17;1.45;;;5.60;99.90;;;;;;7464003;19;20064;-72
2023/11/11 05:52:33;;;;;;;5.97;1.20;;;5.60;99.90;;;;;;7475630;19;21720;-73
2023/11/11 05:55:08;;;;;;;1.92;1.20;;;5.60;99.90;;;;;;7470788;19;20078;-72
2023/11/11 05:57:40;;;;;;;1.77;1.20;;;5.60;99.90;;;;;;7480592;19;20014;-72
2023/11/11 06:00:14;;;;;;;2.65;1.10;;;5.70;99.90;;;;;;7500809;19;20015;-72
2023/11/11 06:02:47;;;;;;;1.77;1.30;;;5.70;99.90;;;;;;7506096;19;20015;-72
2023/11/11 06:05:21;;;;;;;1.20;1.10;;;5.70;99.90;;;;;;7488864;19;20026;-72
2023/11/11 06:07:53;;;;;;;4.22;1.35;;;5.70;99.90;;;;;;7492741;19;20014;-72
2023/11/11 06:10:26;;;;;;;1.33;1.20;;;5.70;99.90;;;;;;7474272;19;20150;-72
2023/11/11 06:12:58;;;;;;;1.40;1.17;;;5.70;99.90;;;;;;7487087;19;20013;-72
2023/11/11 06:15:32;;;;;;;1.80;1.23;;;5.80;99.90;;;;;;7473288;19;21390;-72
2023/11/11 06:18:05;;;;;;;2.70;1.33;;;5.80;99.90;;;;;;7485749;19;21838;-73
2023/11/11 06:20:38;;;;;;;1.77;1.52;;;5.90;99.90;;;;;;7494375;19;20018;-73
2023/11/11 06:23:11;;;;;;;6.75;4.13;;;5.90;99.90;;;;;;7488708;19;20055;-73
2023/11/11 06:25:47;;;;;;;1.58;1.10;;;6.00;99.90;;;;;;7473054;19;20067;-71
2023/11/11 06:28:19;;;;;;;3.28;1.02;;;6.10;99.90;;;;;;7482227;19;21111;-72
2023/11/11 06:30:51;;;;;;;3.35;1.70;;;6.00;99.90;;;;;;7427511;19;20026;-73
2023/11/11 06:33:24;;;;;;;3.10;1.57;;;6.00;99.90;;;;;;7456884;19;20029;-71
2023/11/11 06:35:58;;;;;;;3.73;1.47;;;6.00;99.90;;;;;;7448810;19;20121;-73
2023/11/11 06:38:31;;;;;;;3.65;1.20;;;6.00;99.90;;;;;;7490300;19;20011;-73
2023/11/11 06:41:03;;;;;;;1.73;1.25;;;6.10;99.90;;;;;;7467482;19;20066;-72
2023/11/11 06:43:36;;;;;;;9.83;1.97;;;6.20;99.90;;;;;;7456516;19;20025;-73
2023/11/11 06:46:08;;;;;;;2.22;1.10;;;6.10;99.90;;;;;;7446232;19;20283;-73
2023/11/11 06:48:41;;;;;;;2.37;1.23;;;6.10;99.90;;;;;;7445107;19;26132;-73
2023/11/11 06:51:13;;;;;;;2.78;1.45;;;6.10;99.90;;;;;;7402608;19;20026;-72
2023/11/11 06:53:46;;;;;;;3.03;1.83;;;6.10;99.90;;;;;;7481973;19;21280;-71
2023/11/11 06:56:19;;;;;;;1.65;1.38;;;6.10;99.90;;;;;;7451007;19;20202;-73
2023/11/11 06:58:52;;;;;;;1.55;1.45;;;6.10;99.90;;;;;;7441842;19;20110;-72
2023/11/11 07:01:25;;;;;;;1.85;1.30;;;6.10;99.90;;;;;;7467676;19;21628;-72
2023/11/11 07:03:58;;;;;;;1.25;1.15;;;6.10;99.90;;;;;;7460195;19;21749;-72
2023/11/11 07:06:31;;;;;;;4.30;1.60;;;6.10;99.90;;;;;;7449538;19;20026;-72
2023/11/11 07:09:03;;;;;;;2.30;1.65;;;6.10;99.90;;;;;;7425653;19;20015;-73
2023/11/11 07:11:36;;;;;;;2.17;1.35;;;6.10;99.90;;;;;;7441293;19;21851;-72
2023/11/11 07:14:08;;;;;;;1.48;1.38;;;6.20;99.90;;;;;;7471396;19;20018;-72
2023/11/11 07:16:41;;;;;;;5.55;1.50;;;6.20;99.90;;;;;;7453043;19;20967;-72
2023/11/11 07:19:13;;;;;;;3.28;1.58;;;6.30;99.90;;;;;;7454904;19;20143;-72
2023/11/11 07:21:45;;;;;;;3.28;1.42;;;6.30;99.90;;;;;;7461407;19;20014;-73
2023/11/11 07:24:19;;;;;;;2.53;1.70;;;6.20;99.90;;;;;;7472937;19;20023;-74
2023/11/11 07:26:51;;;;;;;;;;;6.30;99.90;;;;;;7431804;19;20011;-72
2023/11/11 07:29:25;;;;;;;2.63;1.80;;;6.30;99.90;;;;;;7453641;19;20770;-72
2023/11/11 07:31:58;;;;;;;5.13;1.65;;;6.40;99.90;;;;;;7454726;19;20147;-74
2023/11/11 07:34:31;;;;;;;5.00;2.28;;;6.40;99.90;;;;;;7467315;19;20010;-72
2023/11/11 07:37:04;;;;;;;2.55;1.52;;;6.50;99.90;;;;;;7446644;19;20048;-72
2023/11/11 07:39:38;;;;;;;3.03;1.58;;;6.50;99.90;;;;;;7448124;19;20097;-67
2023/11/11 07:42:11;;;;;;;2.00;1.35;;;6.60;99.90;;;;;;7463441;19;20015;-68
2023/11/11 07:44:44;;;;;;;1.88;1.58;;;6.60;99.90;;;;;;7402928;19;20019;-70
2023/11/11 07:47:16;;;;;;;2.58;1.50;;;6.70;99.90;;;;;;7427482;19;21597;-73
2023/11/11 07:49:49;;;;;;;3.25;1.98;;;6.70;99.90;;;;;;7412952;19;20029;-72
2023/11/11 07:52:23;;;;;;;4.63;2.13;;;6.80;99.90;;;;;;7367062;19;20010;-72
2023/11/11 07:54:55;;;;;;;;;;;6.90;99.90;;;;;;7415318;19;20011;-72
2023/11/11 07:57:29;;;;;;;2.08;1.52;;;6.90;99.90;;;;;;7445830;19;19924;-72
2023/11/11 08:00:06;;;;;;;2.10;1.35;;;6.90;99.90;;;;;;7416135;19;20060;-71
2023/11/11 08:02:38;;;;;;;2.88;1.73;;;7.00;99.90;;;;;;7456569;19;21390;-72
2023/11/11 08:05:11;;;;;;;2.58;1.52;;;7.00;99.90;;;;;;7427718;19;20051;-71
2023/11/11 08:07:43;;;;;;;3.38;1.48;;;7.00;99.90;;;;;;7416191;19;20027;-70
2023/11/11 08:10:16;;;;;;;2.50;1.40;;;6.90;99.90;;;;;;7438412;19;20011;-70
2023/11/11 08:12:49;;;;;;;2.83;1.55;;;7.00;99.90;;;;;;7443405;19;22073;-71
2023/11/11 08:15:21;;;;;;;3.42;1.55;;;7.00;99.90;;;;;;7411078;19;20021;-71
2023/11/11 08:17:54;;;;;;;2.63;1.65;;;7.00;99.90;;;;;;7432693;19;20935;-71
2023/11/11 08:20:27;;;;;;;2.80;1.45;;;7.10;99.90;;;;;;7449141;19;20106;-73
2023/11/11 08:22:59;;;;;;;2.03;1.50;;;7.10;99.90;;;;;;7458015;19;20014;-71
2023/11/11 08:25:32;;;;;;;3.63;1.90;;;7.10;99.90;;;;;;7427475;19;20018;-71
2023/11/11 08:28:05;;;;;;;5.40;1.73;;;7.30;99.90;;;;;;7472595;19;20010;-73
2023/11/11 08:30:40;;;;;;;2.25;1.50;;;7.30;99.90;;;;;;7419015;19;20018;-73
2023/11/11 08:33:13;;;;;;;1.50;1.38;;;7.30;99.90;;;;;;7475091;19;20043;-75
2023/11/11 08:35:47;;;;;;;2.90;1.55;;;7.30;99.90;;;;;;7444216;19;20021;-73
2023/11/11 08:38:19;;;;;;;2.73;1.27;;;7.30;99.90;;;;;;7490544;19;20139;-74
2023/11/11 08:40:52;;;;;;;2.25;1.20;;;7.40;99.90;;;;;;7484918;19;20014;-73
2023/11/11 08:43:25;;;;;;;3.75;1.35;;;7.40;99.90;;;;;;7476053;19;20017;-75
2023/11/11 08:45:58;;;;;;;;;;;7.40;99.90;;;;;;7475833;19;20022;-72
2023/11/11 08:48:31;;;;;;;1.88;1.30;;;7.50;99.90;;;;;;7485496;19;19918;-73
2023/11/11 08:51:04;;;;;;;2.90;1.30;;;7.50;99.90;;;;;;7494878;19;20056;-73
2023/11/11 08:53:36;;;;;;;1.20;1.10;;;7.60;99.90;;;;;;7467095;19;20026;-72
2023/11/11 08:56:09;;;;;;;2.40;1.20;;;7.60;99.90;;;;;;7467444;19;20010;-73
2023/11/11 08:58:41;;;;;;;4.80;2.30;;;7.50;99.90;;;;;;7491466;19;20011;-73
2023/11/11 09:01:14;;;;;;;3.33;1.48;;;7.60;99.90;;;;;;7470710;19;20018;-72
2023/11/11 09:03:50;;;;;;;2.30;1.10;;;7.50;99.90;;;;;;7480704;19;20696;-74
2023/11/11 09:06:23;;;;;;;3.10;1.42;;;7.60;99.90;;;;;;7529035;19;20021;-73
2023/11/11 09:08:56;;;;;;;1.92;1.60;;;7.60;99.90;;;;;;7520283;19;20564;-72
2023/11/11 09:11:29;;;;;;;1.92;1.40;;;7.60;99.90;;;;;;7547845;19;20030;-72
2023/11/11 09:14:03;;;;;;;3.92;0.95;;;7.80;99.90;;;;;;7549212;19;20940;-72
2023/11/11 09:16:36;;;;;;;4.32;1.33;;;7.80;99.90;;;;;;7517979;19;20605;-71
2023/11/11 09:19:08;;;;;;;3.33;1.67;;;7.80;99.90;;;;;;7529646;19;20041;-70
2023/11/11 09:21:41;;;;;;;1.88;1.60;;;7.70;99.90;;;;;;7553574;19;20016;-73
2023/11/11 09:24:14;;;;;;;3.23;1.60;;;7.80;99.90;;;;;;7560358;19;20021;-70
2023/11/11 09:26:47;;;;;;;2.75;1.38;;;7.80;99.90;;;;;;7538595;19;21279;-71
2023/11/11 09:29:24;;;;;;;2.70;1.38;;;8.00;99.90;;;;;;7518494;19;21817;-71
2023/11/11 09:31:56;;;;;;;4.27;1.50;;;8.10;99.90;;;;;;7487468;19;20018;-73
2023/11/11 09:34:28;;;;;;;1.88;1.52;;;8.20;99.90;;;;;;7503040;19;20321;-72
2023/11/11 09:37:01;;;;;;;1.52;1.23;;;8.30;99.90;;;;;;7483532;19;20026;-74
2023/11/11 09:39:34;;;;;;;3.43;1.50;;;8.30;99.90;;;;;;7487155;19;20019;-73
2023/11/11 09:42:08;;;;;;;1.97;1.27;;;8.40;99.90;;;;;;7467094;19;22296;-72
2023/11/11 09:44:44;;;;;;;1.88;1.25;;;8.50;99.90;;;;;;7470162;19;20015;-72
2023/11/11 09:47:22;;;;;;;4.40;1.50;;;8.60;99.90;;;;;;7473247;19;20017;-73
2023/11/11 09:49:55;;;;;;;1.70;1.30;;;8.60;99.90;;;;;;7442761;19;20014;-74
2023/11/11 09:52:31;;;;;;;2.55;1.33;;;8.70;99.90;;;;;;7433212;19;21127;-73
2023/11/11 09:55:05;;;;;;;3.88;1.35;;;8.70;99.90;;;;;;7471035;19;20150;-74
2023/11/11 09:57:38;;;;;;;1.70;1.17;;;8.60;99.90;;;;;;7458605;19;20055;-73
2023/11/11 10:00:14;;;;;;;1.77;1.30;;;8.70;99.90;;;;;;7459018;19;21277;-73
2023/11/11 10:02:47;;;;;;;3.78;1.25;;;8.70;99.90;;;;;;7488783;19;20011;-73
2023/11/11 10:05:20;;;;;;;4.15;2.00;;;8.60;99.90;;;;;;7462566;19;20477;-75
2023/11/11 10:07:55;;;;;;;2.80;1.48;;;8.50;99.90;;;;;;7473770;19;20110;-75
2023/11/11 10:10:29;;;;;;;3.78;1.60;;;8.60;99.90;;;;;;7475587;19;20007;-74
2023/11/11 10:13:03;;;;;;;2.08;1.20;;;8.60;99.90;;;;;;7489507;19;20052;-74
2023/11/11 10:15:35;;;;;;;1.27;1.17;;;8.80;99.90;;;;;;7466552;19;20500;-73
2023/11/11 10:18:08;;;;;;;3.53;1.30;;;8.80;99.90;;;;;;7475914;19;20014;-75
2023/11/11 10:20:46;;;;;;;4.97;1.30;;;8.70;99.90;;;;;;7471741;19;20028;-75
2023/11/11 10:23:26;;;;;;;2.00;1.10;;;8.70;99.90;;;;;;7435218;19;20064;-74
2023/11/11 10:26:06;;;;;;;3.13;1.70;;;8.60;99.90;;;;;;7493206;19;20373;-73
2023/11/11 10:28:39;;;;;;;4.25;1.58;;;8.50;99.90;;;;;;7479337;19;20018;-73
2023/11/11 10:31:12;;;;;;;1.95;1.40;;;8.50;99.90;;;;;;7472211;19;20015;-74
2023/11/11 10:33:57;;;;;;;2.33;1.35;;;8.60;99.90;;;;;;7470570;19;20083;-75
2023/11/11 10:36:56;;;;;;;4.00;1.30;;;8.60;99.90;;;;;;7464482;19;20048;-74
2023/11/11 10:39:33;;;;;;;1.67;1.20;;;8.50;99.90;;;;;;7476176;19;20057;-74
2023/11/11 10:42:06;;;;;;;4.35;1.15;;;8.50;99.90;;;;;;7477409;19;21831;-74
2023/11/11 10:44:40;;;;;;;2.05;1.17;;;8.30;99.90;;;;;;7481806;19;20044;-76
2023/11/11 10:47:13;;;;;;;4.47;2.03;;;8.40;99.90;;;;;;7460592;19;20629;-75
2023/11/11 10:49:47;;;;;;;2.73;1.70;;;8.30;99.90;;;;;;7461332;19;20068;-75
2023/11/11 10:52:20;;;;;;;2.30;1.40;;;8.20;99.90;;;;;;7473489;19;20022;-74
2023/11/11 10:54:56;;;;;;;;;;;8.20;99.90;;;;;;7491511;19;20052;-72
2023/11/11 10:57:31;;;;;;;2.97;1.58;;;8.20;99.90;;;;;;7462724;19;19967;-72
2023/11/11 11:00:12;;;;;;;3.15;1.27;;;8.20;99.90;;;;;;7468703;19;20027;-76
2023/11/11 11:02:47;;;;;;;3.20;1.40;;;8.20;99.90;;;;;;7474325;19;21740;-74
2023/11/11 11:05:36;;;;;;;4.07;1.50;;;8.20;99.90;;;;;;7483486;19;20022;-75
2023/11/11 11:08:31;;;;;;;2.35;1.52;;;8.20;99.90;;;;;;7496467;19;20022;-73
2023/11/11 11:11:30;;;;;;;1.67;1.30;;;8.30;99.90;;;;;;7448258;19;20018;-75
2023/11/11 11:14:19;;;;;;;2.03;1.60;;;8.40;99.90;;;;;;7476776;19;21132;-74
2023/11/11 11:16:52;;;;;;;3.35;1.45;;;8.90;99.90;;;;;;7488625;19;20018;-74
2023/11/11 11:19:24;;;;;;;1.63;1.50;;;9.30;99.90;;;;;;7493057;19;21677;-72
2023/11/11 11:21:57;;;;;;;4.25;1.30;;;9.50;99.90;;;;;;7504065;19;20290;-75
2023/11/11 11:24:32;;;;;;;1.30;1.17;;;9.40;99.90;;;;;;7496732;19;20018;-72
2023/11/11 11:27:05;;;;;;;2.92;1.58;;;9.50;99.90;;;;;;7491857;19;20048;-74
2023/11/11 11:29:38;;;;;;;5.60;1.42;;;9.60;99.90;;;;;;7491280;19;20029;-71
2023/11/11 11:32:11;;;;;;;2.43;1.87;;;9.80;99.90;;;;;;7494646;19;20011;-71
2023/11/11 11:35:23;;;;;;;1.88;1.40;;;9.70;99.90;;;;;;7518409;19;20022;-74
2023/11/11 11:37:57;;;;;;;2.67;1.60;;;9.50;99.90;;;;;;7465880;19;20036;-75
2023/11/11 11:40:30;;;;;;;2.88;1.38;;;9.20;99.90;;;;;;7449276;19;20018;-75
2023/11/11 11:43:09;;;;;;;4.33;1.77;;;9.10;99.90;;;;;;7503595;19;20130;-75
2023/11/11 11:45:42;;;;;;;2.17;1.50;;;9.10;99.90;;;;;;7491401;19;20505;-74
2023/11/11 11:48:14;;;;;;;4.22;2.00;;;9.10;99.90;;;;;;7471929;19;20018;-72
2023/11/11 11:50:47;;;;;;;5.65;2.15;;;9.00;99.90;;;;;;7473277;19;20056;-74
2023/11/11 11:53:21;;;;;;;2.67;1.80;;;10.00;99.90;;;;;;7447432;19;20010;-72
2023/11/11 11:55:53;;;;;;;1.30;1.20;;;11.30;99.00;;;;;;7501413;19;20455;-72
2023/11/11 11:58:25;;;;;;;1.85;1.27;;;10.50;99.00;;;;;;7493026;19;21237;-71
2023/11/11 12:00:58;;;;;;;1.70;1.33;;;10.90;97.40;;;;;;7487684;19;20030;-72
2023/11/11 12:03:31;;;;;;;4.72;1.50;;;10.20;97.50;;;;;;7518871;19;22145;-73
2023/11/11 12:06:04;;;;;;;2.03;1.30;;;10.60;98.10;;;;;;7488938;19;20053;-74
2023/11/11 12:08:38;;;;;;;4.30;1.45;;;10.90;96.80;;;;;;7483542;19;20607;-72
2023/11/11 12:11:10;;;;;;;1.88;1.60;;;10.00;98.00;;;;;;7507600;19;20582;-72
2023/11/11 12:13:43;;;;;;;3.00;1.50;;;9.50;99.20;;;;;;7482709;19;20448;-72
2023/11/11 12:16:17;;;;;;;4.90;1.75;;;9.30;99.40;;;;;;7471774;19;20014;-73
2023/11/11 12:18:51;;;;;;;2.40;1.58;;;9.30;99.50;;;;;;7487552;19;20086;-74
2023/11/11 12:21:24;;;;;;;1.98;1.58;;;9.50;99.10;;;;;;7483279;19;20018;-73
2023/11/11 12:23:56;;;;;;;1.95;1.40;;;9.60;98.50;;;;;;7461223;19;20014;-72
2023/11/11 12:26:29;;;;;;;1.85;1.30;;;10.20;97.20;;;;;;7481182;19;20018;-73
2023/11/11 12:29:03;;;;;;;3.33;1.30;;;9.60;97.40;;;;;;7491907;19;20018;-72
2023/11/11 12:31:47;;;;;;;2.13;1.35;;;9.70;97.70;;;;;;7461883;19;20837;-71
2023/11/11 12:34:26;;;;;;;2.20;1.20;;;9.60;98.30;;;;;;7457622;19;20019;-72
2023/11/11 12:36:59;;;;;;;1.38;1.08;;;10.00;97.80;;;;;;7464591;19;20014;-71
2023/11/11 12:39:37;;;;;;;1.50;1.30;;;10.70;95.80;;;;;;7500997;19;20053;-71
2023/11/11 12:42:10;;;;;;;2.17;1.70;;;;;;;;;;7486014;19;20018;-71
2023/11/11 12:44:43;;;;;;;3.23;1.00;;;;;;;;;;7444223;19;20018;-71
2023/11/11 12:47:15;;;;;;;1.05;0.90;;;12.70;93.50;;;;;;7445612;19;20267;-71
2023/11/11 12:49:50;;;;;;;1.60;1.00;;;13.40;80.20;;;;;;7421738;19;20010;-72
2023/11/11 12:52:23;;;;;;;1.23;0.90;;;12.20;85.60;;;;;;7372909;19;21143;-71
2023/11/11 12:54:56;;;;;;;2.42;1.48;;;11.90;86.10;;;;;;7414980;19;20025;-72
2023/11/11 12:57:31;;;;;;;1.10;0.90;;;13.40;84.50;;;;;;7410210;19;20679;-72
2023/11/11 13:00:07;;;;;;;1.90;1.80;;;12.90;85.70;;;;;;7469899;19;20376;-72
2023/11/11 13:02:39;;;;;;;1.20;1.00;;;15.00;81.60;;;;;;7473664;19;21133;-72
2023/11/11 13:05:12;;;;;;;1.50;1.40;;;15.00;78.30;;;;;;7465270;19;20868;-72
2023/11/11 13:07:44;;;;;;;3.40;1.13;;;12.70;84.70;;;;;;7458546;19;20019;-74
2023/11/11 13:10:17;;;;;;;1.48;1.38;;;11.80;87.30;;;;;;7470594;19;20010;-73
2023/11/11 13:12:50;;;;;;;1.95;1.20;;;11.90;86.30;;;;;;7481695;19;20025;-74
2023/11/11 13:15:22;;;;;;;2.13;1.27;;;10.70;89.80;;;;;;7439700;19;21326;-72
2023/11/11 13:17:55;;;;;;;1.88;1.55;;;10.10;91.40;;;;;;7466430;19;20026;-75
2023/11/11 13:20:28;;;;;;;1.73;1.40;;;9.80;91.50;;;;;;7491955;19;20014;-74
2023/11/11 13:23:02;;;;;;;2.57;1.47;;;9.90;92.60;;;;;;7494955;19;20045;-71
2023/11/11 13:25:37;;;;;;;1.50;1.10;;;9.80;93.20;;;;;;7470442;19;20275;-74
2023/11/11 13:28:10;;;;;;;5.45;1.40;;;9.50;93.50;;;;;;7504133;19;20469;-74
2023/11/11 13:30:42;;;;;;;2.85;1.55;;;9.20;94.00;;;;;;7494478;19;20021;-74